Austin, Texas
Traffic Map
Current Weather Conditions
Austin, Texas
Clear
Clear
51°
Feels Like: 51°
Wind Chill: 51° Ceiling: Unl
Heat Index: 51° Visibility: mi
Dew Point: 31° Wind: 0mph
Humidity: 46% Direction: ° ()
Pressure: 30.29in Gusts: 0mph
Raw Report DataKATT 130051Z AUTO 00000KT CLR 11/M01 A3029 RMK AO2 SLP256 T01061006 $
Traffic Incident Summary
Active as of:
Severity:
Category:
InformationThere was an issue retrieving the traffic information for this location. Please try a different location or try again shortly.
Advertisements